Facebook

   
     
Pulvinar tempor cras amet ac turpis tristique tristique ... (read more) close

İNSECTA has 100516 registered users

Userlist

# Status Avatar Username Posts Karma Join date Last login Hits
211 OFFLINE justinventers90's Avatar justinventers90 0 0 28 Kas 2016 12:32 28 Kas 2016 12:32 195
212 OFFLINE latashadyring93's Avatar latashadyring93 0 0 28 Kas 2016 12:38 28 Kas 2016 12:38 193
213 OFFLINE michellkeenan1's Avatar michellkeenan1 0 0 28 Kas 2016 13:33 28 Kas 2016 13:33 184
214 OFFLINE bretmacdevitt58's Avatar bretmacdevitt58 0 0 28 Kas 2016 14:33 28 Kas 2016 14:33 217
215 OFFLINE carmelhiw063209's Avatar carmelhiw063209 0 0 29 Kas 2016 01:11 29 Kas 2016 01:16 189
216 OFFLINE drew37z5241354's Avatar drew37z5241354 0 0 29 Kas 2016 01:46 29 Kas 2016 08:22 196
217 OFFLINE danilofollmer6's Avatar danilofollmer6 0 0 29 Kas 2016 07:38 29 Kas 2016 07:39 184
218 OFFLINE rolandn8247530's Avatar rolandn8247530 0 0 29 Kas 2016 09:11 29 Kas 2016 09:11 265
219 OFFLINE jakek5376258946's Avatar jakek5376258946 0 0 29 Kas 2016 12:21 29 Kas 2016 12:25 191
220 OFFLINE jacquiecamidge's Avatar jacquiecamidge 0 0 29 Kas 2016 15:45 29 Kas 2016 15:49 195
221 OFFLINE krystal38t82074's Avatar krystal38t82074 0 0 30 Kas 2016 05:32 30 Kas 2016 05:38 196
222 OFFLINE azavivobu's Avatar azavivobu 0 0 30 Kas 2016 15:35 30 Kas 2016 15:35 193
223 OFFLINE kieranh01950699's Avatar kieranh01950699 0 0 01 Ara 2016 08:33 01 Ara 2016 08:33 304
224 OFFLINE onavahogy's Avatar onavahogy 0 0 01 Ara 2016 09:08 01 Ara 2016 09:08 198
225 OFFLINE adocu's Avatar adocu 0 0 01 Ara 2016 17:04 01 Ara 2016 17:04 189
226 OFFLINE kareemgipps907's Avatar kareemgipps907 0 0 02 Ara 2016 09:15 02 Ara 2016 09:15 196
227 OFFLINE acocuju's Avatar acocuju 0 0 02 Ara 2016 15:19 02 Ara 2016 15:19 194
228 OFFLINE freda151979549's Avatar freda151979549 0 0 04 Ara 2016 23:18 04 Ara 2016 23:18 204
229 OFFLINE stantono0612207's Avatar stantono0612207 0 0 04 Ara 2016 23:23 04 Ara 2016 23:23 242
230 OFFLINE johnettetitswor's Avatar johnettetitswor 0 0 04 Ara 2016 23:32 04 Ara 2016 23:32 198
231 OFFLINE tiavachon538704's Avatar tiavachon538704 0 0 04 Ara 2016 23:45 04 Ara 2016 23:45 195
232 OFFLINE frankdennis712's Avatar frankdennis712 0 0 04 Ara 2016 23:48 04 Ara 2016 23:48 190
233 OFFLINE margotparramore's Avatar margotparramore 0 0 04 Ara 2016 23:56 04 Ara 2016 23:56 192
234 OFFLINE yong50q03465579's Avatar yong50q03465579 0 0 05 Ara 2016 00:04 05 Ara 2016 00:04 191
235 OFFLINE rosaline01k5410's Avatar rosaline01k5410 0 0 05 Ara 2016 00:09 05 Ara 2016 00:09 182
236 OFFLINE belle4535547396's Avatar belle4535547396 0 0 05 Ara 2016 00:21 05 Ara 2016 00:21 241
237 OFFLINE jasmincamp11384's Avatar jasmincamp11384 0 0 05 Ara 2016 00:31 05 Ara 2016 00:31 204
238 OFFLINE mrmbernardo4342's Avatar mrmbernardo4342 0 0 05 Ara 2016 00:38 05 Ara 2016 00:38 180
239 OFFLINE jaichapin231423's Avatar jaichapin231423 0 0 05 Ara 2016 00:55 05 Ara 2016 00:55 210
240 OFFLINE summergreenleaf's Avatar summergreenleaf 0 0 05 Ara 2016 01:00 05 Ara 2016 01:00 201

Who Is Online

Total users online: 0 Members and 17 Guests Online
Legend:  Site Administrator Global Moderator Moderator Banned User Guest

Kunena Statistics

  • Toplum Üye: 100.5k
  • Son Üye elekhivr
  • Toplam Mesaj: 21
  • Toplam Konu: 14
  • Toplam Bölüm: 3
  • Toplam Kategori: 10
  • Bugün Açılan: 0
  • Dün Açılan: 0
  • Bugün Cevaplar: 0
  • Dün Cevaplar: 0

Custom HTML

Time to create page: 6.491 seconds

Copyright © 2013 İnsecta Haşere Kontrol Hizmetleri